createdAt,value
2022-10-28T00:01:41.818Z,20.70
2022-10-28T00:04:11.160Z,15.73
2022-10-28T00:06:38.541Z,16.88
2022-10-28T00:09:09.641Z,19.38
2022-10-28T00:11:39.513Z,15.68
2022-10-28T00:14:08.072Z,13.30
2022-10-28T00:16:37.872Z,21.80
2022-10-28T00:19:06.953Z,18.27
2022-10-28T00:21:36.135Z,16.15
2022-10-28T00:24:04.006Z,18.25
2022-10-28T00:26:32.941Z,15.95
2022-10-28T00:29:01.685Z,17.17
2022-10-28T00:31:30.519Z,14.75
2022-10-28T00:34:00.740Z,17.27
2022-10-28T00:36:31.700Z,18.98
2022-10-28T00:38:59.698Z,17.17
2022-10-28T00:41:28.875Z,14.95
2022-10-28T00:43:58.355Z,13.73
2022-10-28T00:46:29.664Z,15.95
2022-10-28T00:49:02.897Z,15.50
2022-10-28T00:51:31.495Z,20.25
2022-10-28T00:53:59.306Z,18.08
2022-10-28T00:56:28.448Z,16.98
2022-10-28T00:58:57.582Z,17.13
2022-10-28T01:01:25.089Z,21.17
2022-10-28T01:03:52.507Z,14.88
2022-10-28T01:06:21.221Z,18.95
2022-10-28T01:08:48.554Z,18.27
2022-10-28T01:11:27.607Z,18.52
2022-10-28T01:14:13.351Z,18.75
2022-10-28T01:16:43.964Z,18.27
2022-10-28T01:19:31.168Z,15.25
2022-10-28T01:22:08.022Z,17.20
2022-10-28T01:24:48.655Z,15.63
2022-10-28T01:27:37.153Z,20.88
2022-10-28T01:30:09.297Z,19.27
2022-10-28T01:32:44.834Z,13.00
2022-10-28T01:35:17.306Z,13.30
2022-10-28T01:37:50.493Z,16.00
2022-10-28T01:40:23.064Z,16.45
2022-10-28T01:42:54.893Z,14.23
2022-10-28T01:45:26.721Z,16.23
2022-10-28T01:47:58.792Z,15.32
2022-10-28T01:50:28.892Z,14.70
2022-10-28T01:53:00.134Z,17.25
2022-10-28T01:55:29.492Z,19.58
2022-10-28T01:57:58.868Z,15.60
2022-10-28T02:00:26.887Z,17.70
2022-10-28T02:02:56.769Z,15.52
2022-10-28T02:05:44.659Z,15.30
2022-10-28T02:08:47.290Z,18.20
2022-10-28T02:11:26.259Z,15.90
2022-10-28T02:14:00.409Z,19.50
2022-10-28T02:16:32.426Z,16.48
2022-10-28T02:19:08.276Z,19.83
2022-10-28T02:21:44.584Z,18.67
2022-10-28T02:24:16.707Z,22.30
2022-10-28T02:26:48.710Z,18.20
2022-10-28T02:29:18.609Z,18.45
2022-10-28T02:31:48.931Z,19.08
2022-10-28T02:34:19.553Z,21.75
2022-10-28T02:36:50.203Z,23.35
2022-10-28T02:39:18.986Z,18.65
2022-10-28T02:41:50.271Z,19.23
2022-10-28T02:44:19.681Z,18.67
2022-10-28T02:46:48.521Z,18.20
2022-10-28T02:49:16.057Z,20.08
2022-10-28T02:51:47.494Z,16.00
2022-10-28T02:54:16.734Z,21.35
2022-10-28T02:56:51.080Z,20.48
2022-10-28T02:59:18.519Z,17.17
2022-10-28T03:01:46.013Z,18.73
2022-10-28T03:04:13.477Z,21.73
2022-10-28T03:06:40.857Z,19.73
2022-10-28T03:09:09.562Z,15.15
2022-10-28T03:11:36.918Z,20.48
2022-10-28T03:14:04.277Z,27.00
2022-10-28T03:16:31.680Z,20.15
2022-10-28T03:18:59.331Z,16.08
2022-10-28T03:21:26.718Z,21.08
2022-10-28T03:23:54.238Z,19.77
2022-10-28T03:26:22.894Z,17.10
2022-10-28T03:28:50.363Z,14.05
2022-10-28T03:31:17.797Z,17.80
2022-10-28T03:33:45.143Z,19.60
2022-10-28T03:36:12.481Z,16.23
2022-10-28T03:38:39.824Z,19.35
2022-10-28T03:41:07.148Z,17.77
2022-10-28T03:43:35.805Z,20.38
2022-10-28T03:46:03.161Z,22.98
2022-10-28T03:48:30.525Z,21.95
2022-10-28T03:50:57.869Z,17.02
2022-10-28T03:53:27.696Z,20.17
2022-10-28T03:55:58.971Z,21.00
2022-10-28T03:58:26.964Z,19.15
2022-10-28T04:00:56.306Z,22.73
2022-10-28T04:03:25.155Z,26.10
2022-10-28T04:05:52.697Z,21.17
2022-10-28T04:08:20.790Z,25.02
2022-10-28T04:10:48.646Z,22.48
2022-10-28T04:13:16.997Z,24.27
2022-10-28T04:15:44.598Z,30.52
2022-10-28T04:18:13.507Z,26.08
2022-10-28T04:20:41.108Z,22.00
2022-10-28T04:23:09.399Z,28.95
2022-10-28T04:25:36.734Z,26.73
2022-10-28T04:28:04.209Z,27.83
2022-10-28T04:30:31.558Z,24.40
2022-10-28T04:32:58.909Z,28.83
2022-10-28T04:35:27.755Z,24.23
2022-10-28T04:37:55.528Z,20.38
2022-10-28T04:40:23.131Z,18.98
2022-10-28T04:42:50.552Z,24.35
2022-10-28T04:45:18.253Z,23.02
2022-10-28T04:47:45.616Z,21.60
2022-10-28T04:50:12.961Z,28.50
2022-10-28T04:52:41.640Z,20.15
2022-10-28T04:55:09.796Z,24.50
2022-10-28T04:57:37.145Z,23.98
2022-10-28T05:00:05.467Z,24.98
2022-10-28T05:02:32.847Z,30.48
2022-10-28T05:05:03.409Z,23.60
2022-10-28T05:07:30.859Z,19.17
2022-10-28T05:09:59.521Z,19.90
2022-10-28T05:12:26.925Z,26.33
2022-10-28T05:14:54.323Z,23.15
2022-10-28T05:17:21.745Z,19.42
2022-10-28T05:19:49.119Z,25.98
2022-10-28T05:22:16.456Z,23.73
2022-10-28T05:24:43.805Z,25.92
2022-10-28T05:27:12.793Z,31.75
2022-10-28T05:29:40.130Z,29.77
2022-10-28T05:32:07.463Z,23.85
2022-10-28T05:34:34.858Z,26.40
2022-10-28T05:37:02.193Z,26.73
2022-10-28T05:39:29.528Z,24.48
2022-10-28T05:41:56.884Z,22.23
2022-10-28T05:44:25.587Z,28.02
2022-10-28T05:46:54.047Z,28.67
2022-10-28T05:49:21.528Z,26.80
2022-10-28T05:51:48.920Z,26.20
2022-10-28T05:54:16.257Z,22.88
2022-10-28T05:56:43.599Z,26.67
2022-10-28T05:59:10.949Z,31.67
2022-10-28T06:01:40.211Z,27.27
2022-10-28T06:04:07.604Z,38.55
2022-10-28T06:06:35.033Z,28.38
2022-10-28T06:09:02.547Z,29.88
2022-10-28T06:11:28.681Z,29.23
2022-10-28T06:13:56.016Z,29.70
2022-10-28T06:16:23.481Z,31.98
2022-10-28T06:18:52.190Z,30.15
2022-10-28T06:21:19.534Z,32.13
2022-10-28T06:23:47.523Z,31.25
2022-10-28T06:26:14.958Z,31.92
2022-10-28T06:28:42.287Z,36.05
2022-10-28T06:31:09.695Z,27.13
2022-10-28T06:33:37.039Z,29.15
2022-10-28T06:36:06.623Z,24.70
2022-10-28T06:38:33.968Z,23.48
2022-10-28T06:41:01.468Z,23.00
2022-10-28T06:43:28.852Z,27.85
2022-10-28T06:45:56.332Z,33.95
2022-10-28T06:48:25.393Z,25.65
2022-10-28T06:50:55.654Z,21.42
2022-10-28T06:53:24.408Z,26.40
2022-10-28T06:55:55.005Z,29.35
2022-10-28T06:58:22.473Z,27.52
2022-10-28T07:00:53.391Z,22.30
2022-10-28T07:03:23.693Z,26.25
2022-10-28T07:05:51.856Z,21.67
2022-10-28T07:08:19.542Z,23.27
2022-10-28T07:10:56.196Z,23.45
2022-10-28T07:13:23.587Z,17.80
2022-10-28T07:15:54.318Z,22.98
2022-10-28T07:18:21.734Z,18.02
2022-10-28T07:20:49.421Z,16.92
2022-10-28T07:23:17.208Z,15.25
2022-10-28T07:25:45.674Z,21.35
2022-10-28T07:28:14.365Z,15.00
2022-10-28T07:30:41.716Z,15.18
2022-10-28T07:33:09.236Z,15.52
2022-10-28T07:35:36.655Z,18.92
2022-10-28T07:38:04.021Z,13.48
2022-10-28T07:40:31.357Z,14.38
2022-10-28T07:42:59.145Z,16.60
2022-10-28T07:45:27.787Z,14.73
2022-10-28T07:47:55.216Z,11.70
2022-10-28T07:50:22.677Z,17.42
2022-10-28T07:52:50.076Z,16.70
2022-10-28T07:55:17.481Z,19.02
2022-10-28T07:57:44.900Z,15.85
2022-10-28T08:00:12.879Z,16.02
2022-10-28T08:02:41.996Z,10.57
2022-10-28T08:05:09.752Z,13.10
2022-10-28T08:07:38.693Z,17.25
2022-10-28T08:10:07.748Z,10.98
2022-10-28T08:12:35.117Z,13.52
2022-10-28T08:15:02.749Z,14.73
2022-10-28T08:17:30.207Z,13.07
2022-10-28T08:19:58.850Z,15.57
2022-10-28T08:22:26.225Z,19.38
2022-10-28T08:24:53.571Z,11.48
2022-10-28T08:27:20.927Z,13.73
2022-10-28T08:29:48.274Z,17.08
2022-10-28T08:32:15.628Z,18.33
2022-10-28T08:34:43.781Z,15.40
2022-10-28T08:37:12.659Z,12.80
2022-10-28T08:39:40.023Z,12.80
2022-10-28T08:42:22.454Z,11.20
2022-10-28T08:45:16.260Z,14.32
2022-10-28T08:47:49.466Z,11.02
2022-10-28T08:50:19.242Z,16.50
2022-10-28T08:52:52.755Z,18.75
2022-10-28T08:57:51.871Z,23.20
2022-10-28T09:00:22.678Z,36.33
2022-10-28T09:02:57.336Z,45.65
2022-10-28T09:05:26.894Z,29.05
2022-10-28T09:07:55.815Z,30.98
2022-10-28T09:10:35.508Z,16.02
2022-10-28T09:13:07.438Z,22.10
2022-10-28T09:18:17.920Z,17.27
2022-10-28T09:20:51.298Z,14.82
2022-10-28T09:23:23.406Z,12.07
2022-10-28T09:26:07.964Z,10.98
2022-10-28T09:28:47.471Z,10.65
2022-10-28T09:31:21.570Z,12.32
2022-10-28T09:33:57.665Z,16.02
2022-10-28T09:36:28.778Z,22.25
2022-10-28T09:38:58.112Z,19.52
2022-10-28T09:41:26.697Z,13.52
2022-10-28T09:43:55.676Z,10.23
2022-10-28T09:46:24.677Z,8.65
2022-10-28T09:48:53.067Z,9.52
2022-10-28T09:51:28.017Z,15.43
2022-10-28T09:53:58.998Z,9.95
2022-10-28T09:56:27.545Z,12.80
2022-10-28T09:58:56.687Z,9.60
2022-10-28T10:01:24.074Z,14.57
2022-10-28T10:03:52.589Z,13.05
2022-10-28T10:06:23.198Z,14.27
2022-10-28T10:08:50.550Z,13.43
2022-10-28T10:11:27.322Z,14.48
2022-10-28T10:13:55.346Z,15.65
2022-10-28T10:16:27.874Z,11.93
2022-10-28T10:18:58.379Z,10.67
2022-10-28T10:21:41.956Z,16.35
2022-10-28T10:24:26.110Z,15.07
2022-10-28T10:26:55.237Z,12.85
2022-10-28T10:29:23.041Z,13.45
2022-10-28T10:32:04.738Z,12.45
2022-10-28T10:34:32.190Z,10.38
2022-10-28T10:37:00.833Z,8.35
2022-10-28T10:39:34.777Z,8.75
2022-10-28T10:42:03.473Z,16.23
2022-10-28T10:44:33.338Z,8.50
2022-10-28T10:47:30.983Z,10.55
2022-10-28T10:50:21.595Z,11.85
2022-10-28T10:52:50.352Z,13.82
2022-10-28T10:55:23.214Z,8.57
2022-10-28T10:57:52.124Z,12.30
2022-10-28T11:00:21.606Z,12.60
2022-10-28T11:02:52.216Z,16.73
2022-10-28T11:05:27.247Z,10.55
2022-10-28T11:08:04.881Z,9.50
2022-10-28T11:10:34.124Z,10.82
2022-10-28T11:13:07.106Z,12.93
2022-10-28T11:15:34.625Z,12.32
2022-10-28T11:18:20.524Z,14.10
2022-10-28T11:20:54.273Z,7.68
2022-10-28T11:23:36.379Z,16.48
2022-10-28T11:26:05.941Z,14.10
2022-10-28T11:28:52.961Z,14.32
2022-10-28T11:31:44.736Z,13.20
2022-10-28T11:34:24.598Z,9.80
2022-10-28T11:36:58.031Z,13.15
2022-10-28T11:39:28.628Z,16.13
2022-10-28T11:42:04.258Z,13.95
2022-10-28T11:44:45.262Z,15.73
2022-10-28T11:47:25.851Z,14.50
2022-10-28T11:50:08.878Z,13.73
2022-10-28T11:52:50.810Z,12.30
2022-10-28T11:55:27.267Z,13.77
2022-10-28T11:58:04.938Z,9.07
2022-10-28T12:00:44.637Z,13.40
2022-10-28T12:03:29.393Z,11.95
2022-10-28T12:06:03.534Z,11.77
2022-10-28T12:08:42.105Z,12.75
2022-10-28T12:11:18.253Z,12.10
2022-10-28T12:13:51.395Z,15.25
2022-10-28T12:16:23.223Z,15.70
2022-10-28T12:18:54.132Z,14.45
2022-10-28T12:21:28.024Z,12.50
2022-10-28T12:23:57.231Z,14.90
2022-10-28T12:26:33.226Z,15.77
2022-10-28T12:29:03.201Z,13.05
2022-10-28T12:31:35.800Z,15.52
2022-10-28T12:34:05.987Z,18.75
2022-10-28T12:36:35.856Z,14.65
2022-10-28T12:39:07.459Z,12.43
2022-10-28T12:41:46.747Z,10.15
2022-10-28T12:44:15.616Z,9.70
2022-10-28T12:46:58.055Z,12.98
2022-10-28T12:49:36.676Z,12.05
2022-10-28T12:52:10.847Z,18.00
2022-10-28T12:54:44.435Z,13.70
2022-10-28T12:59:41.253Z,15.25
2022-10-28T13:02:16.477Z,13.20
2022-10-28T13:04:43.927Z,10.98
2022-10-28T13:07:22.243Z,14.32
2022-10-28T13:09:58.343Z,12.57
2022-10-28T13:12:36.009Z,16.10
2022-10-28T13:15:20.667Z,17.27
2022-10-28T13:17:58.231Z,13.20
2022-10-28T13:20:31.822Z,12.60
2022-10-28T13:23:05.406Z,14.18
2022-10-28T13:25:42.412Z,14.00
2022-10-28T13:28:13.628Z,8.80
2022-10-28T13:30:52.904Z,13.80
2022-10-28T13:33:24.649Z,16.25
2022-10-28T13:38:26.140Z,15.07
2022-10-28T13:41:17.851Z,15.95
2022-10-28T13:44:00.588Z,14.73
2022-10-28T13:47:02.042Z,16.52
2022-10-28T13:49:31.177Z,15.80
2022-10-28T13:52:03.204Z,16.42
2022-10-28T13:54:37.122Z,12.38
2022-10-28T13:57:07.790Z,15.07
2022-10-28T13:59:47.667Z,13.75
2022-10-28T14:02:37.072Z,12.55
2022-10-28T14:05:08.634Z,18.52
2022-10-28T14:07:37.252Z,16.45
2022-10-28T14:10:20.947Z,16.55
2022-10-28T14:12:51.489Z,12.48
2022-10-28T14:15:21.741Z,22.55
2022-10-28T14:17:52.296Z,11.48
2022-10-28T14:20:28.870Z,17.27
2022-10-28T14:22:56.740Z,18.73
2022-10-28T14:25:59.736Z,14.43
2022-10-28T14:28:52.960Z,21.25
2022-10-28T14:31:34.053Z,12.10
2022-10-28T14:34:44.346Z,18.75
2022-10-28T14:37:28.638Z,17.10
2022-10-28T14:40:14.872Z,14.52
2022-10-28T14:43:11.647Z,15.02
2022-10-28T14:45:48.986Z,16.48
2022-10-28T14:48:41.310Z,21.60
2022-10-28T14:51:10.729Z,13.60
2022-10-28T14:53:41.929Z,16.23
2022-10-28T14:56:11.688Z,9.70
2022-10-28T14:58:40.586Z,10.57
2022-10-28T15:01:21.753Z,12.40
2022-10-28T15:03:51.471Z,16.05
2022-10-28T15:06:26.935Z,15.07
2022-10-28T15:08:55.792Z,12.73
2022-10-28T15:11:23.510Z,11.13
2022-10-28T15:13:53.268Z,20.35
2022-10-28T15:16:22.367Z,17.42
2022-10-28T15:18:53.818Z,23.20
2022-10-28T15:21:23.016Z,20.77
2022-10-28T15:24:01.740Z,19.13
2022-10-28T15:26:29.414Z,11.55
2022-10-28T15:28:56.848Z,15.40
2022-10-28T15:31:24.233Z,13.60
2022-10-28T15:33:51.648Z,17.38
2022-10-28T15:36:21.045Z,19.17
2022-10-28T15:38:50.002Z,14.18
2022-10-28T15:41:42.431Z,16.55
2022-10-28T15:44:25.471Z,13.45
2022-10-28T15:46:52.977Z,20.15
2022-10-28T15:49:37.673Z,18.35
2022-10-28T15:52:22.396Z,16.27
2022-10-28T15:54:56.583Z,17.88
2022-10-28T15:57:26.942Z,17.67
2022-10-28T16:00:20.664Z,23.83
2022-10-28T16:02:55.579Z,12.80
2022-10-28T16:05:53.484Z,18.10
2022-10-28T16:08:24.111Z,21.98
2022-10-28T16:10:54.651Z,19.88
2022-10-28T16:13:25.821Z,16.00
2022-10-28T16:15:59.102Z,15.98
2022-10-28T16:18:28.283Z,18.42
2022-10-28T16:20:56.298Z,20.50
2022-10-28T16:23:25.032Z,21.67
2022-10-28T16:25:52.362Z,17.70
2022-10-28T16:28:22.569Z,17.65
2022-10-28T16:30:56.139Z,15.23
2022-10-28T16:33:28.886Z,18.10
2022-10-28T16:35:56.502Z,14.13
2022-10-28T16:38:23.869Z,16.20
2022-10-28T16:40:52.456Z,15.48
2022-10-28T16:43:21.300Z,14.98
2022-10-28T16:45:49.047Z,13.45
2022-10-28T16:48:18.976Z,16.63
2022-10-28T16:50:50.322Z,15.73
2022-10-28T16:53:17.697Z,16.88
2022-10-28T16:55:45.050Z,19.33
2022-10-28T16:58:12.780Z,17.52
2022-10-28T17:00:40.615Z,26.58
2022-10-28T17:03:08.574Z,24.48
2022-10-28T17:05:37.227Z,27.50
2022-10-28T17:08:07.368Z,29.67
2022-10-28T17:10:37.167Z,41.50
2022-10-28T17:13:04.527Z,95.88
2022-10-28T17:15:31.949Z,125.40
2022-10-28T17:17:59.533Z,92.88
2022-10-28T17:20:27.051Z,67.57
2022-10-28T17:22:58.027Z,55.30
2022-10-28T17:25:25.798Z,35.60
2022-10-28T17:27:54.686Z,37.50
2022-10-28T17:30:22.349Z,36.17
2022-10-28T17:32:51.066Z,32.95
2022-10-28T17:35:18.746Z,25.23
2022-10-28T17:37:46.144Z,21.08
2022-10-28T17:40:14.959Z,27.45
2022-10-28T17:42:42.307Z,21.80
2022-10-28T17:45:10.780Z,20.63
2022-10-28T17:47:38.184Z,21.10
2022-10-28T17:50:06.408Z,23.50
2022-10-28T17:52:37.412Z,21.85
2022-10-28T17:55:06.804Z,25.83
2022-10-28T17:57:35.464Z,24.70
2022-10-28T18:00:03.400Z,37.20
2022-10-28T18:02:40.021Z,22.38
2022-10-28T18:05:07.996Z,25.02
2022-10-28T18:07:35.394Z,24.98
2022-10-28T18:10:02.775Z,35.75
2022-10-28T18:12:30.120Z,44.22
2022-10-28T18:14:58.791Z,46.13
2022-10-28T18:17:26.187Z,56.53
2022-10-28T18:19:53.608Z,57.75
2022-10-28T18:22:20.968Z,41.92
2022-10-28T18:24:48.418Z,45.40
2022-10-28T18:27:15.992Z,29.38
2022-10-28T18:29:43.409Z,26.48
2022-10-28T18:32:12.076Z,25.38
2022-10-28T18:34:39.623Z,28.98
2022-10-28T18:37:09.524Z,23.98
2022-10-28T18:39:36.866Z,26.25
2022-10-28T18:42:04.370Z,18.48
2022-10-28T18:44:32.479Z,20.02
2022-10-28T18:47:00.000Z,31.50
2022-10-28T18:49:28.640Z,26.00
2022-10-28T18:51:56.005Z,20.00
2022-10-28T18:54:23.348Z,18.80
2022-10-28T18:56:53.710Z,27.05
2022-10-28T18:59:24.035Z,24.73
2022-10-28T19:01:51.525Z,19.98
2022-10-28T19:04:18.968Z,21.42
2022-10-28T19:06:47.616Z,21.13
2022-10-28T19:09:14.955Z,16.90
2022-10-28T19:11:42.335Z,22.58
2022-10-28T19:14:10.280Z,25.90
2022-10-28T19:16:37.776Z,20.35
2022-10-28T19:19:06.011Z,22.75
2022-10-28T19:21:34.123Z,18.30
2022-10-28T19:24:03.457Z,23.65
2022-10-28T19:26:31.826Z,20.48
2022-10-28T19:28:59.263Z,22.65
2022-10-28T19:31:27.722Z,23.98
2022-10-28T19:33:55.449Z,25.02
2022-10-28T19:36:24.472Z,19.10
2022-10-28T19:38:53.552Z,16.63
2022-10-28T19:41:23.758Z,19.63
2022-10-28T19:43:56.910Z,22.60
2022-10-28T19:46:26.862Z,23.08
2022-10-28T19:48:56.152Z,29.92
2022-10-28T19:51:25.037Z,26.67
2022-10-28T19:53:55.243Z,22.42
2022-10-28T19:56:24.501Z,22.95
2022-10-28T19:58:53.339Z,28.95
2022-10-28T20:01:21.447Z,22.33
2022-10-28T20:03:50.790Z,23.13
2022-10-28T20:06:19.594Z,25.33
2022-10-28T20:08:48.021Z,22.33
2022-10-28T20:11:20.107Z,23.17
2022-10-28T20:13:54.281Z,17.52
2022-10-28T20:16:21.878Z,23.13
2022-10-28T20:18:49.229Z,24.65
2022-10-28T20:21:17.791Z,18.23
2022-10-28T20:23:46.500Z,20.83
2022-10-28T20:26:14.510Z,26.58
2022-10-28T20:28:41.961Z,20.10
2022-10-28T20:31:12.204Z,18.20
2022-10-28T20:33:41.409Z,22.60
2022-10-28T20:36:22.190Z,22.13
2022-10-28T20:38:49.540Z,20.45
2022-10-28T20:41:16.889Z,21.70
2022-10-28T20:43:44.233Z,18.45
2022-10-28T20:46:17.518Z,15.98
2022-10-28T20:48:47.229Z,27.42
2022-10-28T20:51:14.641Z,23.13
2022-10-28T20:53:42.373Z,17.63
2022-10-28T20:56:16.060Z,23.45
2022-10-28T20:58:43.411Z,24.52
2022-10-28T21:01:14.929Z,19.35
2022-10-28T21:03:42.808Z,17.35
2022-10-28T21:06:10.774Z,23.88
2022-10-28T21:08:38.477Z,21.60
2022-10-28T21:11:06.888Z,26.92
2022-10-28T21:13:34.610Z,20.45
2022-10-28T21:16:04.824Z,18.02
2022-10-28T21:18:33.862Z,21.77
2022-10-28T21:21:01.273Z,20.30
2022-10-28T21:23:29.098Z,19.98
2022-10-28T21:25:57.395Z,16.52
2022-10-28T21:28:25.158Z,31.60
2022-10-28T21:30:52.496Z,20.20
2022-10-28T21:33:19.839Z,19.38
2022-10-28T21:35:57.437Z,21.77
2022-10-28T21:38:24.879Z,22.83
2022-10-28T21:40:59.679Z,17.23
2022-10-28T21:43:28.387Z,17.88
2022-10-28T21:45:55.787Z,22.80
2022-10-28T21:48:23.178Z,16.60
2022-10-28T21:50:51.816Z,19.02
2022-10-28T21:53:20.817Z,23.40
2022-10-28T21:55:49.954Z,20.40
2022-10-28T21:58:18.805Z,21.48
2022-10-28T22:00:47.013Z,22.73
2022-10-28T22:03:14.660Z,20.48
2022-10-28T22:05:50.094Z,17.27
2022-10-28T22:08:17.737Z,21.13
2022-10-28T22:10:46.396Z,19.83
2022-10-28T22:13:13.872Z,23.40
2022-10-28T22:15:41.355Z,17.80
2022-10-28T22:18:08.699Z,18.17
2022-10-28T22:20:36.048Z,29.67
2022-10-28T22:23:03.396Z,20.08
2022-10-28T22:25:30.730Z,18.13
2022-10-28T22:27:59.379Z,20.00
2022-10-28T22:30:26.768Z,20.13
2022-10-28T22:32:54.438Z,23.30
2022-10-28T22:35:21.980Z,18.92
2022-10-28T22:37:49.320Z,17.20
2022-10-28T22:40:16.684Z,21.90
2022-10-28T22:42:44.031Z,17.88
2022-10-28T22:45:12.764Z,20.02
2022-10-28T22:47:40.124Z,25.20
2022-10-28T22:50:07.809Z,17.88
2022-10-28T22:52:35.170Z,21.58
2022-10-28T22:55:02.521Z,24.00
2022-10-28T22:57:29.874Z,29.20
2022-10-28T22:59:57.225Z,22.50
2022-10-28T23:02:26.084Z,23.30
2022-10-28T23:04:53.507Z,21.38
2022-10-28T23:07:21.075Z,17.95
2022-10-28T23:09:48.461Z,23.10
2022-10-28T23:12:15.792Z,20.75
2022-10-28T23:14:43.133Z,23.60
2022-10-28T23:17:10.480Z,22.85
2022-10-28T23:19:39.123Z,23.17
2022-10-28T23:22:06.477Z,27.35
2022-10-28T23:24:33.820Z,27.63
2022-10-28T23:27:01.165Z,21.25
2022-10-28T23:29:28.539Z,18.92
2022-10-28T23:31:55.870Z,22.40
2022-10-28T23:34:23.213Z,18.60
2022-10-28T23:36:54.069Z,27.35
2022-10-28T23:39:21.605Z,18.83
2022-10-28T23:41:50.443Z,21.45
2022-10-28T23:44:17.869Z,25.98
2022-10-28T23:46:45.209Z,23.15
2022-10-28T23:49:12.607Z,26.60
2022-10-28T23:51:39.950Z,26.60
2022-10-28T23:54:08.934Z,23.98
2022-10-28T23:56:36.263Z,20.52
2022-10-28T23:59:03.594Z,30.50
